createdAt,value
2019-03-30T00:00:05.332Z,1.30
2019-03-30T00:02:31.263Z,1.23
2019-03-30T00:04:57.203Z,1.80
2019-03-30T00:07:23.136Z,1.40
2019-03-30T00:09:49.085Z,1.37
2019-03-30T00:12:15.026Z,2.23
2019-03-30T00:14:40.977Z,1.47
2019-03-30T00:17:06.918Z,1.30
2019-03-30T00:19:35.205Z,1.83
2019-03-30T00:22:00.724Z,1.17
2019-03-30T00:24:26.673Z,1.23
2019-03-30T00:26:52.611Z,1.20
2019-03-30T00:29:18.565Z,1.20
2019-03-30T00:31:47.196Z,1.30
2019-03-30T00:34:13.287Z,1.53
2019-03-30T00:36:39.226Z,1.20
2019-03-30T00:39:05.361Z,1.10
2019-03-30T00:41:31.830Z,1.13
2019-03-30T00:43:57.761Z,1.53
2019-03-30T00:46:23.694Z,1.40
2019-03-30T00:48:49.792Z,1.10
2019-03-30T00:51:15.905Z,1.20
2019-03-30T00:53:41.837Z,0.83
2019-03-30T00:56:07.800Z,1.53
2019-03-30T00:58:33.751Z,1.10
2019-03-30T01:00:59.701Z,1.10
2019-03-30T01:03:25.744Z,1.40
2019-03-30T01:05:51.708Z,1.37
2019-03-30T01:08:17.686Z,1.60
2019-03-30T01:10:43.632Z,1.77
2019-03-30T01:13:09.565Z,1.53
2019-03-30T01:15:35.506Z,1.57
2019-03-30T01:18:01.474Z,1.30
2019-03-30T01:20:27.440Z,1.57
2019-03-30T01:22:53.404Z,1.47
2019-03-30T01:25:19.360Z,1.77
2019-03-30T01:27:45.309Z,2.03
2019-03-30T01:30:22.453Z,1.40
2019-03-30T01:32:39.094Z,1.20
2019-03-30T01:35:05.099Z,1.63
2019-03-30T01:37:31.102Z,1.57
2019-03-30T01:39:57.050Z,1.30
2019-03-30T01:42:23.021Z,1.20
2019-03-30T01:44:48.966Z,1.60
2019-03-30T01:47:14.912Z,1.33
2019-03-30T01:49:40.947Z,1.57
2019-03-30T01:52:06.878Z,1.10
2019-03-30T01:54:33.008Z,1.07
2019-03-30T01:56:58.976Z,1.50
2019-03-30T01:59:24.907Z,1.43
2019-03-30T02:01:50.856Z,1.20
2019-03-30T02:04:16.800Z,1.77
2019-03-30T02:06:42.750Z,1.57
2019-03-30T02:09:08.687Z,1.63
2019-03-30T02:11:34.633Z,1.93
2019-03-30T02:14:00.565Z,1.70
2019-03-30T02:16:26.489Z,1.67
2019-03-30T02:18:52.451Z,1.07
2019-03-30T02:21:18.390Z,1.30
2019-03-30T02:23:44.339Z,1.40
2019-03-30T02:26:10.291Z,1.70
2019-03-30T02:28:36.242Z,1.73
2019-03-30T02:31:02.188Z,2.00
2019-03-30T02:33:28.142Z,1.97
2019-03-30T02:35:54.093Z,1.33
2019-03-30T02:38:20.125Z,1.63
2019-03-30T02:40:46.174Z,1.17
2019-03-30T02:43:12.118Z,1.33
2019-03-30T02:45:38.184Z,1.17
2019-03-30T02:48:04.347Z,1.33
2019-03-30T02:50:47.774Z,1.37
2019-03-30T02:52:58.250Z,1.60
2019-03-30T02:55:24.206Z,1.30
2019-03-30T02:57:50.249Z,1.10
2019-03-30T03:00:16.490Z,1.53
2019-03-30T03:02:42.547Z,1.53
2019-03-30T03:05:08.497Z,2.30
2019-03-30T03:07:34.545Z,1.60
2019-03-30T03:10:00.543Z,1.93
2019-03-30T03:12:26.647Z,1.70
2019-03-30T03:14:52.607Z,1.17
2019-03-30T03:17:18.577Z,1.20
2019-03-30T03:19:44.639Z,1.37
2019-03-30T03:22:10.580Z,1.93
2019-03-30T03:24:36.549Z,1.37
2019-03-30T03:27:02.561Z,1.60
2019-03-30T03:29:28.505Z,1.50
2019-03-30T03:31:54.478Z,1.27
2019-03-30T03:34:20.546Z,2.27
2019-03-30T03:36:46.508Z,1.77
2019-03-30T03:39:12.506Z,1.20
2019-03-30T03:41:38.884Z,1.30
2019-03-30T03:44:04.918Z,1.63
2019-03-30T03:46:30.880Z,1.77
2019-03-30T03:48:56.832Z,1.63
2019-03-30T03:51:26.073Z,1.07
2019-03-30T03:53:50.636Z,1.30
2019-03-30T03:56:16.587Z,1.67
2019-03-30T03:58:42.633Z,1.40
2019-03-30T04:01:08.594Z,1.30
2019-03-30T04:03:34.537Z,2.03
2019-03-30T04:06:00.501Z,1.10
2019-03-30T04:08:26.542Z,1.40
2019-03-30T04:10:52.619Z,1.27
2019-03-30T04:13:18.582Z,1.43
2019-03-30T04:15:44.733Z,1.10
2019-03-30T04:18:10.795Z,1.47
2019-03-30T04:20:36.739Z,1.37
2019-03-30T04:23:02.685Z,1.57
2019-03-30T04:28:04.830Z,1.40
2019-03-30T04:30:30.788Z,1.70
2019-03-30T04:32:56.857Z,1.53
2019-03-30T04:35:22.894Z,1.30
2019-03-30T04:37:48.852Z,1.27
2019-03-30T04:40:14.797Z,1.33
2019-03-30T04:42:40.752Z,1.77
2019-03-30T04:45:06.793Z,1.30
2019-03-30T04:47:32.824Z,1.83
2019-03-30T04:49:58.904Z,1.27
2019-03-30T04:52:24.970Z,2.13
2019-03-30T04:54:50.938Z,1.30
2019-03-30T04:57:16.886Z,0.97
2019-03-30T04:59:42.844Z,1.37
2019-03-30T05:02:08.805Z,1.20
2019-03-30T05:04:34.740Z,1.00
2019-03-30T05:07:00.696Z,1.43
2019-03-30T05:09:26.657Z,1.30
2019-03-30T05:11:52.602Z,1.50
2019-03-30T05:14:18.526Z,0.97
2019-03-30T05:16:44.509Z,1.10
2019-03-30T05:19:10.526Z,1.70
2019-03-30T05:21:36.464Z,1.50
2019-03-30T05:24:02.417Z,1.20
2019-03-30T05:26:28.466Z,1.30
2019-03-30T05:28:54.471Z,1.47
2019-03-30T05:31:20.421Z,1.50
2019-03-30T05:33:46.352Z,1.47
2019-03-30T05:36:12.327Z,1.37
2019-03-30T05:38:38.265Z,1.60
2019-03-30T05:41:04.438Z,1.30
2019-03-30T05:43:30.363Z,1.57
2019-03-30T05:45:56.338Z,1.57
2019-03-30T05:48:22.290Z,1.43
2019-03-30T05:50:48.281Z,1.50
2019-03-30T05:53:14.204Z,1.53
2019-03-30T05:55:40.164Z,1.50
2019-03-30T05:58:06.110Z,1.60
2019-03-30T06:00:32.042Z,1.37
2019-03-30T06:02:57.982Z,1.53
2019-03-30T06:05:23.906Z,1.60
2019-03-30T06:07:49.838Z,1.53
2019-03-30T06:10:15.775Z,2.33
2019-03-30T06:12:41.698Z,1.40
2019-03-30T06:15:07.734Z,1.20
2019-03-30T06:17:33.785Z,1.67
2019-03-30T06:19:59.750Z,0.93
2019-03-30T06:22:39.471Z,2.00
2019-03-30T06:24:53.599Z,1.20
2019-03-30T06:27:21.465Z,2.33
2019-03-30T06:29:47.400Z,1.37
2019-03-30T06:32:13.344Z,1.57
2019-03-30T06:34:39.282Z,2.07
2019-03-30T06:37:05.244Z,1.93
2019-03-30T06:39:31.197Z,2.03
2019-03-30T06:41:57.132Z,1.47
2019-03-30T06:44:23.072Z,1.20
2019-03-30T06:46:49.026Z,1.53
2019-03-30T06:49:14.979Z,1.90
2019-03-30T06:51:41.273Z,1.67
2019-03-30T06:54:07.227Z,1.60
2019-03-30T06:56:33.180Z,1.17
2019-03-30T06:58:59.105Z,1.63
2019-03-30T07:01:25.054Z,1.90
2019-03-30T07:03:51.020Z,1.67
2019-03-30T07:06:16.960Z,1.67
2019-03-30T07:08:42.894Z,1.00
2019-03-30T07:11:20.452Z,1.20
2019-03-30T07:13:36.673Z,1.50
2019-03-30T07:16:02.637Z,1.53
2019-03-30T07:18:28.583Z,1.30
2019-03-30T07:20:54.535Z,1.33
2019-03-30T07:23:20.484Z,1.47
2019-03-30T07:25:46.437Z,1.20
2019-03-30T07:28:12.374Z,1.60
2019-03-30T07:30:38.321Z,1.10
2019-03-30T07:33:04.273Z,1.63
2019-03-30T07:35:30.239Z,1.73
2019-03-30T07:37:56.305Z,1.37
2019-03-30T07:40:22.237Z,1.23
2019-03-30T07:42:48.209Z,1.77
2019-03-30T07:45:14.269Z,1.90
2019-03-30T07:47:40.249Z,1.47
2019-03-30T07:50:06.182Z,1.90
2019-03-30T07:52:32.138Z,2.27
2019-03-30T07:54:58.105Z,1.80
2019-03-30T07:57:24.063Z,2.30
2019-03-30T07:59:50.114Z,1.90
2019-03-30T08:02:16.075Z,1.83
2019-03-30T08:04:42.027Z,2.30
2019-03-30T08:07:07.985Z,2.07
2019-03-30T08:09:37.071Z,2.37
2019-03-30T08:12:01.789Z,2.17
2019-03-30T08:14:27.771Z,2.00
2019-03-30T08:16:53.818Z,2.00
2019-03-30T08:19:21.750Z,2.70
2019-03-30T08:21:47.721Z,1.97
2019-03-30T08:24:13.797Z,1.77
2019-03-30T08:26:39.761Z,1.97
2019-03-30T08:29:05.689Z,1.93
2019-03-30T08:31:31.813Z,2.10
2019-03-30T08:33:57.852Z,1.33
2019-03-30T08:36:23.802Z,2.33
2019-03-30T08:38:49.773Z,1.53
2019-03-30T08:41:15.727Z,1.77
2019-03-30T08:43:41.873Z,2.47
2019-03-30T08:46:07.840Z,1.57
2019-03-30T08:48:33.833Z,3.07
2019-03-30T08:50:59.786Z,1.83
2019-03-30T08:53:25.732Z,2.37
2019-03-30T08:55:51.696Z,1.40
2019-03-30T08:58:17.651Z,2.00
2019-03-30T09:00:43.696Z,1.60
2019-03-30T09:03:09.665Z,1.63
2019-03-30T09:05:35.687Z,1.83
2019-03-30T09:08:01.658Z,1.50
2019-03-30T09:10:27.617Z,2.93
2019-03-30T09:12:53.661Z,1.67
2019-03-30T09:15:19.719Z,1.77
2019-03-30T09:17:45.764Z,1.60
2019-03-30T09:20:11.727Z,2.00
2019-03-30T09:22:37.664Z,1.70
2019-03-30T09:25:03.614Z,1.67
2019-03-30T09:27:29.564Z,1.70
2019-03-30T09:29:55.521Z,1.50
2019-03-30T09:32:21.504Z,1.57
2019-03-30T09:34:47.449Z,1.30
2019-03-30T09:37:13.379Z,1.80
2019-03-30T09:39:39.322Z,1.97
2019-03-30T09:42:05.263Z,1.37
2019-03-30T09:44:31.228Z,1.27
2019-03-30T09:46:57.176Z,1.33
2019-03-30T09:49:23.142Z,2.13
2019-03-30T09:51:49.094Z,1.33
2019-03-30T09:54:23.637Z,1.40
2019-03-30T09:56:42.908Z,1.10
2019-03-30T09:59:08.961Z,1.70
2019-03-30T10:01:35.027Z,1.73
2019-03-30T10:04:01.052Z,1.67
2019-03-30T10:06:34.323Z,1.40
2019-03-30T10:08:54.852Z,1.57
2019-03-30T10:11:20.820Z,1.73
2019-03-30T10:13:46.880Z,1.60
2019-03-30T10:16:12.902Z,1.67
2019-03-30T10:18:38.864Z,1.40
2019-03-30T10:21:04.914Z,1.60
2019-03-30T10:23:30.884Z,1.90
2019-03-30T10:25:56.856Z,1.53
2019-03-30T10:28:22.825Z,1.40
2019-03-30T10:30:48.806Z,2.30
2019-03-30T10:33:14.736Z,1.77
2019-03-30T10:35:40.696Z,1.63
2019-03-30T10:38:06.648Z,1.40
2019-03-30T10:40:32.686Z,1.50
2019-03-30T10:42:58.650Z,1.30
2019-03-30T10:45:24.684Z,1.33
2019-03-30T10:47:50.704Z,1.63
2019-03-30T10:50:16.660Z,1.40
2019-03-30T10:52:42.600Z,2.13
2019-03-30T10:55:08.536Z,1.30
2019-03-30T10:57:34.470Z,1.43
2019-03-30T11:00:00.432Z,1.37
2019-03-30T11:02:26.485Z,1.83
2019-03-30T11:04:52.440Z,1.13
2019-03-30T11:07:18.407Z,1.77
2019-03-30T11:09:44.354Z,1.43
2019-03-30T11:12:10.500Z,1.60
2019-03-30T11:14:36.546Z,1.57
2019-03-30T11:17:02.502Z,1.60
2019-03-30T11:19:28.455Z,1.47
2019-03-30T11:21:54.429Z,1.47
2019-03-30T11:24:20.375Z,1.47
2019-03-30T11:26:46.530Z,1.07
2019-03-30T11:29:12.485Z,1.30
2019-03-30T11:31:38.524Z,1.70
2019-03-30T11:34:05.510Z,1.73
2019-03-30T11:36:31.661Z,1.53
2019-03-30T11:41:37.429Z,1.97
2019-03-30T11:44:03.471Z,1.10
2019-03-30T11:46:29.417Z,1.57
2019-03-30T11:48:55.367Z,1.20
2019-03-30T11:51:21.309Z,1.83
2019-03-30T11:53:47.286Z,1.30
2019-03-30T11:56:13.229Z,1.40
2019-03-30T11:58:39.186Z,1.70
2019-03-30T12:01:05.129Z,1.47
2019-03-30T12:03:31.109Z,1.50
2019-03-30T12:05:57.057Z,1.50
2019-03-30T12:08:23.021Z,1.43
2019-03-30T12:10:48.953Z,1.43
2019-03-30T12:13:14.921Z,1.90
2019-03-30T12:15:40.885Z,1.92
2019-03-30T12:18:06.820Z,2.50
2019-03-30T12:20:32.785Z,1.53
2019-03-30T12:22:59.073Z,1.40
2019-03-30T12:25:35.582Z,1.50
2019-03-30T12:27:52.941Z,1.90
2019-03-30T12:30:18.886Z,1.37
2019-03-30T12:32:44.825Z,1.10
2019-03-30T12:35:10.761Z,0.93
2019-03-30T12:37:36.717Z,1.40
2019-03-30T12:40:02.681Z,1.33
2019-03-30T12:42:28.635Z,1.77
2019-03-30T12:44:54.597Z,1.47
2019-03-30T12:47:20.529Z,1.97
2019-03-30T12:49:46.472Z,1.60
2019-03-30T12:52:12.443Z,1.60
2019-03-30T12:54:38.394Z,2.10
2019-03-30T12:57:04.328Z,1.93
2019-03-30T12:59:30.322Z,1.17
2019-03-30T13:01:56.285Z,0.90
2019-03-30T13:04:22.231Z,1.17
2019-03-30T13:06:48.163Z,1.47
2019-03-30T13:09:14.108Z,1.53
2019-03-30T13:11:40.577Z,1.83
2019-03-30T13:14:06.531Z,1.07
2019-03-30T13:16:32.477Z,1.87
2019-03-30T13:18:58.437Z,1.40
2019-03-30T13:21:24.393Z,1.30
2019-03-30T13:23:50.329Z,1.33
2019-03-30T13:26:16.351Z,1.63
2019-03-30T13:28:42.393Z,1.47
2019-03-30T13:31:08.370Z,1.30
2019-03-30T13:33:34.319Z,1.93
2019-03-30T13:36:00.320Z,1.67
2019-03-30T13:38:26.246Z,1.53
2019-03-30T13:40:52.226Z,1.10
2019-03-30T13:43:18.253Z,1.37
2019-03-30T13:45:44.258Z,1.60
2019-03-30T13:48:10.209Z,1.33
2019-03-30T13:50:36.161Z,1.60
2019-03-30T13:53:02.089Z,1.67
2019-03-30T13:55:28.029Z,1.60
2019-03-30T13:57:53.981Z,1.37
2019-03-30T14:00:19.945Z,1.73
2019-03-30T14:02:45.899Z,1.60
2019-03-30T14:05:11.843Z,1.90
2019-03-30T14:07:37.815Z,1.63
2019-03-30T14:10:03.870Z,1.57
2019-03-30T14:12:30.099Z,1.20
2019-03-30T14:14:56.047Z,1.30
2019-03-30T14:17:22.120Z,2.00
2019-03-30T14:19:48.093Z,1.13
2019-03-30T14:22:14.055Z,1.75
2019-03-30T14:24:40.106Z,1.73
2019-03-30T14:27:06.113Z,1.50
2019-03-30T14:29:32.180Z,1.37
2019-03-30T14:31:58.151Z,1.80
2019-03-30T14:34:24.101Z,1.03
2019-03-30T14:36:50.040Z,1.20
2019-03-30T14:39:16.114Z,1.20
2019-03-30T14:41:42.153Z,1.30
2019-03-30T14:44:08.117Z,1.50
2019-03-30T14:46:34.070Z,2.17
2019-03-30T14:49:00.030Z,1.50
2019-03-30T14:51:40.992Z,1.37
2019-03-30T14:54:06.952Z,1.30
2019-03-30T14:56:44.925Z,1.53
2019-03-30T14:59:09.876Z,1.53
2019-03-30T15:01:28.660Z,1.77
2019-03-30T15:03:54.704Z,1.07
2019-03-30T15:06:20.657Z,1.10
2019-03-30T15:08:46.590Z,1.50
2019-03-30T15:11:12.538Z,1.20
2019-03-30T15:13:38.479Z,1.27
2019-03-30T15:16:04.441Z,1.50
2019-03-30T15:18:30.512Z,1.57
2019-03-30T15:20:56.462Z,0.90
2019-03-30T15:23:22.428Z,1.80
2019-03-30T15:25:50.571Z,1.07
2019-03-30T15:28:16.536Z,1.37
2019-03-30T15:30:42.494Z,1.63
2019-03-30T15:33:08.430Z,1.37
2019-03-30T15:35:34.395Z,1.03
2019-03-30T15:38:00.445Z,0.93
2019-03-30T15:40:26.416Z,2.10
2019-03-30T15:42:52.443Z,1.17
2019-03-30T15:45:18.419Z,1.50
2019-03-30T15:47:44.500Z,1.33
2019-03-30T15:50:10.578Z,1.10
2019-03-30T15:52:36.538Z,1.07
2019-03-30T15:55:02.584Z,1.40
2019-03-30T15:57:28.642Z,0.90
2019-03-30T15:59:54.596Z,1.47
2019-03-30T16:02:20.555Z,1.20
2019-03-30T16:04:46.498Z,1.23
2019-03-30T16:07:32.337Z,1.23
2019-03-30T16:09:58.284Z,1.17
2019-03-30T16:12:24.237Z,1.30
2019-03-30T16:14:50.263Z,0.90
2019-03-30T16:17:16.354Z,1.47
2019-03-30T16:19:42.328Z,1.30
2019-03-30T16:22:08.270Z,0.90
2019-03-30T16:24:34.306Z,1.10
2019-03-30T16:27:00.282Z,1.30
2019-03-30T16:29:26.254Z,1.40
2019-03-30T16:31:52.517Z,1.13
2019-03-30T16:34:18.490Z,1.37
2019-03-30T16:36:44.426Z,1.10
2019-03-30T16:39:10.395Z,1.07
2019-03-30T16:41:36.461Z,1.33
2019-03-30T16:44:02.433Z,1.37
2019-03-30T16:46:28.409Z,1.20
2019-03-30T16:48:54.378Z,0.90
2019-03-30T16:51:20.447Z,1.40
2019-03-30T16:53:47.387Z,1.00
2019-03-30T16:56:13.525Z,1.20
2019-03-30T16:58:39.489Z,1.23
2019-03-30T17:01:05.444Z,1.10
2019-03-30T17:03:31.396Z,1.00
2019-03-30T17:05:57.352Z,1.30
2019-03-30T17:08:23.312Z,1.10
2019-03-30T17:10:49.266Z,0.97
2019-03-30T17:13:15.217Z,1.10
2019-03-30T17:15:41.167Z,1.30
2019-03-30T17:18:07.298Z,1.00
2019-03-30T17:20:33.341Z,0.97
2019-03-30T17:22:59.346Z,1.03
2019-03-30T17:25:25.351Z,1.13
2019-03-30T17:27:58.129Z,1.63
2019-03-30T17:30:19.196Z,1.43
2019-03-30T17:32:45.252Z,1.37
2019-03-30T17:35:11.277Z,1.73
2019-03-30T17:37:37.236Z,2.60
2019-03-30T17:40:03.243Z,3.70
2019-03-30T17:42:29.283Z,4.27
2019-03-30T17:44:55.240Z,3.30
2019-03-30T17:47:21.199Z,4.17
2019-03-30T17:49:47.175Z,4.20
2019-03-30T17:52:13.134Z,5.53
2019-03-30T17:54:39.941Z,5.90
2019-03-30T17:57:06.246Z,4.00
2019-03-30T17:59:32.317Z,4.93
2019-03-30T18:01:58.341Z,5.17
2019-03-30T18:04:24.404Z,3.40
2019-03-30T18:06:50.553Z,4.10
2019-03-30T18:09:16.603Z,4.60
2019-03-30T18:11:42.579Z,3.80
2019-03-30T18:14:08.656Z,5.67
2019-03-30T18:16:34.657Z,3.63
2019-03-30T18:19:00.630Z,4.13
2019-03-30T18:21:26.609Z,4.67
2019-03-30T18:23:52.553Z,3.57
2019-03-30T18:26:18.670Z,4.20
2019-03-30T18:28:44.592Z,3.50
2019-03-30T18:31:10.572Z,3.27
2019-03-30T18:33:36.536Z,2.87
2019-03-30T18:36:02.516Z,4.30
2019-03-30T18:38:28.578Z,3.30
2019-03-30T18:40:54.630Z,3.50
2019-03-30T18:43:22.367Z,3.43
2019-03-30T18:45:48.369Z,2.83
2019-03-30T18:48:14.332Z,3.17
2019-03-30T18:50:40.299Z,3.00
2019-03-30T18:53:06.233Z,3.83
2019-03-30T18:55:32.235Z,3.10
2019-03-30T18:57:58.173Z,3.37
2019-03-30T19:00:24.132Z,2.90
2019-03-30T19:02:50.078Z,3.50
2019-03-30T19:05:16.025Z,3.07
2019-03-30T19:07:42.004Z,3.37
2019-03-30T19:10:07.951Z,2.70
2019-03-30T19:12:43.354Z,2.87
2019-03-30T19:15:09.299Z,3.07
2019-03-30T19:17:35.268Z,3.20
2019-03-30T19:20:01.222Z,2.67
2019-03-30T19:22:27.194Z,2.63
2019-03-30T19:24:53.223Z,3.20
2019-03-30T19:27:19.217Z,3.50
2019-03-30T19:29:45.254Z,3.47
2019-03-30T19:32:11.212Z,2.83
2019-03-30T19:34:37.294Z,2.70
2019-03-30T19:37:03.330Z,2.80
2019-03-30T19:39:29.374Z,2.87
2019-03-30T19:41:56.032Z,3.00
2019-03-30T19:44:22.689Z,2.60
2019-03-30T19:46:48.842Z,2.75
2019-03-30T19:49:14.804Z,3.20
2019-03-30T19:51:40.770Z,2.73
2019-03-30T19:54:06.820Z,3.13
2019-03-30T19:56:32.958Z,2.20
2019-03-30T19:59:10.058Z,2.70
2019-03-30T20:01:26.826Z,2.37
2019-03-30T20:03:52.766Z,2.90
2019-03-30T20:06:18.734Z,3.43
2019-03-30T20:08:44.692Z,2.50
2019-03-30T20:11:10.760Z,2.37
2019-03-30T20:13:36.729Z,2.33
2019-03-30T20:16:02.921Z,2.13
2019-03-30T20:18:28.968Z,2.73
2019-03-30T20:20:54.954Z,2.90
2019-03-30T20:23:20.932Z,2.80
2019-03-30T20:25:46.860Z,2.97
2019-03-30T20:28:12.820Z,2.37
2019-03-30T20:30:38.766Z,2.00
2019-03-30T20:33:04.709Z,2.97
2019-03-30T20:35:30.748Z,2.57
2019-03-30T20:37:56.816Z,2.57
2019-03-30T20:40:22.768Z,2.73
2019-03-30T20:42:48.726Z,2.67
2019-03-30T20:45:14.675Z,2.17
2019-03-30T20:47:40.633Z,3.00
2019-03-30T20:50:06.602Z,2.10
2019-03-30T20:52:32.655Z,2.33
2019-03-30T20:54:58.603Z,2.40
2019-03-30T20:57:24.555Z,2.90
2019-03-30T20:59:50.524Z,2.53
2019-03-30T21:02:17.171Z,2.57
2019-03-30T21:04:44.808Z,2.43
2019-03-30T21:07:10.871Z,2.17
2019-03-30T21:09:36.953Z,2.03
2019-03-30T21:12:02.919Z,1.73
2019-03-30T21:14:28.977Z,2.33
2019-03-30T21:16:54.934Z,2.67
2019-03-30T21:19:20.914Z,2.17
2019-03-30T21:21:46.890Z,2.93
2019-03-30T21:24:12.893Z,2.00
2019-03-30T21:26:38.962Z,2.27
2019-03-30T21:29:04.920Z,2.27
2019-03-30T21:31:31.380Z,2.97
2019-03-30T21:33:57.405Z,2.33
2019-03-30T21:36:23.374Z,2.43
2019-03-30T21:38:49.320Z,2.47
2019-03-30T21:41:15.281Z,2.40
2019-03-30T21:43:41.213Z,2.70
2019-03-30T21:46:07.242Z,2.50
2019-03-30T21:48:33.230Z,3.23
2019-03-30T21:50:59.165Z,3.30
2019-03-30T21:53:30.067Z,3.27
2019-03-30T21:55:56.101Z,3.50
2019-03-30T21:58:22.037Z,2.67
2019-03-30T22:00:47.999Z,2.47
2019-03-30T22:03:13.961Z,2.33
2019-03-30T22:05:39.926Z,2.87
2019-03-30T22:08:05.976Z,1.90
2019-03-30T22:10:31.965Z,2.73
2019-03-30T22:12:57.979Z,2.70
2019-03-30T22:15:24.050Z,2.53
2019-03-30T22:17:50.091Z,2.57
2019-03-30T22:20:16.021Z,2.57
2019-03-30T22:22:41.958Z,2.13
2019-03-30T22:25:07.931Z,2.23
2019-03-30T22:27:33.906Z,2.50
2019-03-30T22:29:59.925Z,2.17
2019-03-30T22:32:25.855Z,2.90
2019-03-30T22:34:51.822Z,1.53
2019-03-30T22:37:17.777Z,3.10
2019-03-30T22:39:43.826Z,2.10
2019-03-30T22:42:09.869Z,2.23
2019-03-30T22:44:35.836Z,2.20
2019-03-30T22:47:01.901Z,2.17
2019-03-30T22:49:27.932Z,2.80
2019-03-30T22:51:54.053Z,2.60
2019-03-30T22:54:20.031Z,2.00
2019-03-30T22:56:46.936Z,2.13
2019-03-30T22:59:12.901Z,2.33
2019-03-30T23:01:39.838Z,2.10
2019-03-30T23:04:05.792Z,2.10
2019-03-30T23:06:31.737Z,2.10
2019-03-30T23:08:57.700Z,2.20
2019-03-30T23:11:26.678Z,2.27
2019-03-30T23:13:52.649Z,2.53
2019-03-30T23:16:18.578Z,2.10
2019-03-30T23:18:45.483Z,2.57
2019-03-30T23:21:14.932Z,1.87
2019-03-30T23:23:40.968Z,2.47
2019-03-30T23:26:07.484Z,2.40
2019-03-30T23:28:33.492Z,2.00
2019-03-30T23:31:01.713Z,2.93
2019-03-30T23:33:27.749Z,2.93
2019-03-30T23:35:53.701Z,2.33
2019-03-30T23:38:19.656Z,2.60
2019-03-30T23:40:45.630Z,1.60
2019-03-30T23:43:11.581Z,1.83
2019-03-30T23:45:37.550Z,2.13
2019-03-30T23:48:03.509Z,2.83
2019-03-30T23:50:29.462Z,2.20
2019-03-30T23:52:55.416Z,2.20
2019-03-30T23:55:21.376Z,2.37
2019-03-30T23:57:56.250Z,2.50
